createdAt,value
2022-11-08T00:01:37.076Z,96762.72
2022-11-08T00:04:07.721Z,96769.91
2022-11-08T00:06:52.779Z,96769.25
2022-11-08T00:09:38.059Z,96768.97
2022-11-08T00:12:23.161Z,96770.38
2022-11-08T00:14:49.613Z,96774.00
2022-11-08T00:17:16.994Z,96780.03
2022-11-08T00:19:43.576Z,96771.13
2022-11-08T00:22:13.448Z,96781.66
2022-11-08T00:24:39.988Z,96780.41
2022-11-08T00:27:07.437Z,96776.78
2022-11-08T00:29:34.985Z,96774.06
2022-11-08T00:32:01.731Z,96775.06
2022-11-08T00:34:28.171Z,96773.94
2022-11-08T00:36:54.579Z,96763.06
2022-11-08T00:39:21.063Z,96772.22
2022-11-08T00:41:47.470Z,96768.88
2022-11-08T00:44:13.946Z,96766.72
2022-11-08T00:46:41.403Z,96760.91
2022-11-08T00:49:08.120Z,96761.03
2022-11-08T00:51:34.577Z,96763.41
2022-11-08T00:54:00.995Z,96762.44
2022-11-08T00:56:27.438Z,96758.19
2022-11-08T00:58:53.859Z,96749.25
2022-11-08T01:01:20.755Z,96759.38
2022-11-08T01:03:47.749Z,96768.78
2022-11-08T01:06:14.634Z,96760.00
2022-11-08T01:08:41.565Z,96770.31
2022-11-08T01:11:09.480Z,96767.84
2022-11-08T01:13:35.900Z,96768.19
2022-11-08T01:16:06.421Z,96758.03
2022-11-08T01:18:33.031Z,96755.41
2022-11-08T01:20:59.563Z,96756.84
2022-11-08T01:23:25.973Z,96764.13
2022-11-08T01:25:52.410Z,96765.75
2022-11-08T01:28:19.051Z,96760.50
2022-11-08T01:30:46.202Z,96752.91
2022-11-08T01:33:13.154Z,96758.41
2022-11-08T01:35:40.023Z,96758.03
2022-11-08T01:38:06.496Z,96756.53
2022-11-08T01:40:33.214Z,96744.19
2022-11-08T01:42:59.648Z,96751.41
2022-11-08T01:45:44.738Z,96754.41
2022-11-08T01:48:11.393Z,96753.41
2022-11-08T01:50:37.819Z,96740.94
2022-11-08T01:53:04.189Z,96739.50
2022-11-08T01:55:31.910Z,96731.06
2022-11-08T01:57:59.561Z,96736.50
2022-11-08T02:00:25.999Z,96743.00
2022-11-08T02:02:56.923Z,96735.38
2022-11-08T02:05:26.331Z,96739.88
2022-11-08T02:07:58.929Z,96731.59
2022-11-08T02:10:28.574Z,96717.19
2022-11-08T02:12:54.988Z,96721.88
2022-11-08T02:15:21.515Z,96716.41
2022-11-08T02:17:47.939Z,96720.06
2022-11-08T02:20:14.372Z,96711.53
2022-11-08T02:22:46.794Z,96722.31
2022-11-08T02:25:13.256Z,96716.66
2022-11-08T02:27:39.641Z,96704.09
2022-11-08T02:30:06.326Z,96711.06
2022-11-08T02:32:42.338Z,96712.28
2022-11-08T02:35:10.317Z,96708.47
2022-11-08T02:37:36.898Z,96705.19
2022-11-08T02:40:04.187Z,96706.22
2022-11-08T02:42:30.653Z,96703.97
2022-11-08T02:44:57.070Z,96698.28
2022-11-08T02:47:24.251Z,96703.72
2022-11-08T02:49:50.705Z,96696.84
2022-11-08T02:52:17.155Z,96693.50
2022-11-08T02:54:43.572Z,96696.56
2022-11-08T02:57:09.993Z,96691.56
2022-11-08T02:59:36.421Z,96684.00
2022-11-08T03:02:02.978Z,96690.03
2022-11-08T03:04:29.493Z,96694.78
2022-11-08T03:06:55.969Z,96691.88
2022-11-08T03:09:22.365Z,96680.22
2022-11-08T03:11:48.810Z,96695.69
2022-11-08T03:14:15.222Z,96685.47
2022-11-08T03:16:41.643Z,96682.22
2022-11-08T03:19:08.075Z,96679.59
2022-11-08T03:21:35.510Z,96671.59
2022-11-08T03:24:02.005Z,96668.78
2022-11-08T03:26:28.442Z,96671.59
2022-11-08T03:28:55.235Z,96664.09
2022-11-08T03:31:21.678Z,96654.00
2022-11-08T03:33:48.257Z,96651.63
2022-11-08T03:36:14.768Z,96659.19
2022-11-08T03:38:41.159Z,96652.50
2022-11-08T03:41:07.623Z,96641.78
2022-11-08T03:43:34.023Z,96628.88
2022-11-08T03:46:00.490Z,96640.84
2022-11-08T03:48:26.914Z,96631.59
2022-11-08T03:50:53.423Z,96636.34
2022-11-08T03:53:19.872Z,96626.19
2022-11-08T03:55:46.427Z,96620.94
2022-11-08T03:58:12.868Z,96612.47
2022-11-08T04:00:39.533Z,96614.03
2022-11-08T04:03:05.966Z,96599.44
2022-11-08T04:05:32.564Z,96618.50
2022-11-08T04:07:59.675Z,96589.63
2022-11-08T04:10:26.061Z,96612.94
2022-11-08T04:13:11.184Z,96607.59
2022-11-08T04:15:37.566Z,96596.06
2022-11-08T04:18:22.889Z,96596.03
2022-11-08T04:21:07.954Z,96602.84
2022-11-08T04:23:35.384Z,96585.34
2022-11-08T04:26:02.659Z,96587.56
2022-11-08T04:28:32.933Z,96575.41
2022-11-08T04:31:00.530Z,96567.34
2022-11-08T04:33:26.969Z,96552.19
2022-11-08T04:35:53.531Z,96563.69
2022-11-08T04:38:20.475Z,96564.88
2022-11-08T04:40:47.211Z,96558.63
2022-11-08T04:43:13.609Z,96559.00
2022-11-08T04:45:40.129Z,96556.81
2022-11-08T04:48:06.742Z,96555.47
2022-11-08T04:50:33.643Z,96566.63
2022-11-08T04:53:00.090Z,96558.84
2022-11-08T04:55:26.510Z,96552.53
2022-11-08T04:57:53.291Z,96550.91
2022-11-08T05:00:19.690Z,96547.84
2022-11-08T05:02:46.264Z,96552.25
2022-11-08T05:05:12.726Z,96541.94
2022-11-08T05:07:39.159Z,96546.66
2022-11-08T05:10:05.829Z,96538.59
2022-11-08T05:12:32.328Z,96528.31
2022-11-08T05:14:58.730Z,96538.84
2022-11-08T05:17:25.210Z,96540.22
2022-11-08T05:20:10.417Z,96551.81
2022-11-08T05:22:55.575Z,96552.16
2022-11-08T05:25:22.018Z,96553.59
2022-11-08T05:27:48.443Z,96563.75
2022-11-08T05:30:14.938Z,96560.63
2022-11-08T05:32:41.352Z,96544.97
2022-11-08T05:35:07.795Z,96535.44
2022-11-08T05:37:34.219Z,96539.47
2022-11-08T05:40:00.663Z,96530.56
2022-11-08T05:42:27.108Z,96540.69
2022-11-08T05:44:53.541Z,96541.91
2022-11-08T05:47:20.126Z,96534.75
2022-11-08T05:49:46.743Z,96525.25
2022-11-08T05:52:13.175Z,96519.81
2022-11-08T05:54:39.581Z,96517.31
2022-11-08T05:57:06.026Z,96518.03
2022-11-08T05:59:32.458Z,96520.94
2022-11-08T06:01:58.985Z,96515.97
2022-11-08T06:04:25.508Z,96515.75
2022-11-08T06:06:51.917Z,96517.56
2022-11-08T06:09:18.367Z,96505.13
2022-11-08T06:11:44.793Z,96503.28
2022-11-08T06:14:11.155Z,96498.25
2022-11-08T06:16:37.621Z,96501.25
2022-11-08T06:19:04.007Z,96490.50
2022-11-08T06:21:30.417Z,96479.22
2022-11-08T06:23:56.818Z,96486.75
2022-11-08T06:26:23.634Z,96482.84
2022-11-08T06:28:50.166Z,96479.81
2022-11-08T06:31:16.569Z,96474.47
2022-11-08T06:33:42.973Z,96477.91
2022-11-08T06:36:09.532Z,96495.91
2022-11-08T06:38:35.966Z,96490.25
2022-11-08T06:41:02.447Z,96467.59
2022-11-08T06:43:28.979Z,96448.81
2022-11-08T06:45:55.482Z,96471.69
2022-11-08T06:48:21.910Z,96467.72
2022-11-08T06:50:48.505Z,96471.56
2022-11-08T06:53:15.877Z,96465.34
2022-11-08T06:55:42.579Z,96469.81
2022-11-08T06:58:09.821Z,96434.09
2022-11-08T07:00:36.190Z,96443.84
2022-11-08T07:03:03.463Z,96453.38
2022-11-08T07:05:30.918Z,96462.19
2022-11-08T07:07:58.071Z,96464.00
2022-11-08T07:10:25.353Z,96466.84
2022-11-08T07:12:58.717Z,96479.44
2022-11-08T07:15:25.101Z,96468.34
2022-11-08T07:17:51.538Z,96475.03
2022-11-08T07:20:17.977Z,96467.34
2022-11-08T07:22:44.415Z,96488.69
2022-11-08T07:25:10.793Z,96480.28
2022-11-08T07:27:37.233Z,96492.69
2022-11-08T07:30:03.754Z,96480.16
2022-11-08T07:32:30.191Z,96483.19
2022-11-08T07:34:56.578Z,96481.31
2022-11-08T07:37:23.013Z,96489.22
2022-11-08T07:39:49.409Z,96490.28
2022-11-08T07:42:15.865Z,96489.69
2022-11-08T07:44:42.245Z,96490.72
2022-11-08T07:47:08.652Z,96507.38
2022-11-08T07:49:35.641Z,96497.06
2022-11-08T07:52:02.110Z,96500.75
2022-11-08T07:54:28.501Z,96513.28
2022-11-08T07:56:55.108Z,96494.88
2022-11-08T07:59:21.712Z,96509.28
2022-11-08T08:01:48.132Z,96507.69
2022-11-08T08:04:14.597Z,96502.84
2022-11-08T08:06:40.993Z,96514.63
2022-11-08T08:09:07.427Z,96502.66
2022-11-08T08:11:34.044Z,96494.34
2022-11-08T08:14:00.590Z,96488.44
2022-11-08T08:16:26.987Z,96487.06
2022-11-08T08:18:56.301Z,96482.22
2022-11-08T08:21:23.546Z,96486.03
2022-11-08T08:23:49.984Z,96482.00
2022-11-08T08:26:16.373Z,96490.94
2022-11-08T08:28:42.792Z,96489.31
2022-11-08T08:31:09.226Z,96505.50
2022-11-08T08:33:36.011Z,96507.91
2022-11-08T08:36:02.934Z,96508.97
2022-11-08T08:38:30.215Z,96503.31
2022-11-08T08:40:56.647Z,96512.34
2022-11-08T08:43:23.191Z,96514.47
2022-11-08T08:45:49.918Z,96512.31
2022-11-08T08:48:16.449Z,96498.09
2022-11-08T08:50:42.934Z,96517.44
2022-11-08T08:53:10.283Z,96509.69
2022-11-08T08:55:38.110Z,96520.22
2022-11-08T08:58:04.736Z,96513.91
2022-11-08T09:03:18.098Z,96528.19
2022-11-08T09:05:46.589Z,96514.31
2022-11-08T09:08:14.340Z,96507.53
2022-11-08T09:10:41.179Z,96502.06
2022-11-08T09:13:07.601Z,96486.13
2022-11-08T09:15:34.028Z,96490.59
2022-11-08T09:18:00.541Z,96489.28
2022-11-08T09:20:26.981Z,96490.22
2022-11-08T09:22:53.406Z,96499.91
2022-11-08T09:25:19.808Z,96494.81
2022-11-08T09:27:46.228Z,96470.06
2022-11-08T09:30:12.674Z,96490.03
2022-11-08T09:32:59.730Z,96462.28
2022-11-08T09:35:25.523Z,96473.84
2022-11-08T09:37:55.116Z,96487.63
2022-11-08T09:40:30.966Z,96473.66
2022-11-08T09:42:57.386Z,96484.63
2022-11-08T09:45:25.523Z,96464.94
2022-11-08T09:47:55.141Z,96480.13
2022-11-08T09:50:36.754Z,96481.41
2022-11-08T09:53:21.960Z,96466.41
2022-11-08T09:55:58.954Z,96473.06
2022-11-08T09:58:30.772Z,96482.53
2022-11-08T10:00:57.163Z,96477.72
2022-11-08T10:03:24.741Z,96471.25
2022-11-08T10:05:58.491Z,96472.84
2022-11-08T10:08:35.770Z,96485.38
2022-11-08T10:11:07.060Z,96477.09
2022-11-08T10:13:37.518Z,96490.16
2022-11-08T10:16:07.001Z,96504.03
2022-11-08T10:18:48.627Z,96493.81
2022-11-08T10:21:19.940Z,96500.41
2022-11-08T10:23:48.352Z,96515.72
2022-11-08T10:26:16.735Z,96501.59
2022-11-08T10:28:50.368Z,96513.31
2022-11-08T10:31:17.991Z,96514.63
2022-11-08T10:33:57.224Z,96505.56
2022-11-08T10:36:40.089Z,96501.81
2022-11-08T10:39:09.511Z,96499.38
2022-11-08T10:41:54.641Z,96493.16
2022-11-08T10:44:21.943Z,96495.97
2022-11-08T10:46:48.404Z,96471.91
2022-11-08T10:49:19.592Z,96477.94
2022-11-08T10:51:46.650Z,96479.78
2022-11-08T10:54:33.028Z,96485.44
2022-11-08T10:56:59.446Z,96466.88
2022-11-08T10:59:29.861Z,96452.59
2022-11-08T11:01:56.318Z,96460.31
2022-11-08T11:04:27.198Z,96467.72
2022-11-08T11:06:53.664Z,96463.66
2022-11-08T11:09:21.238Z,96460.22
2022-11-08T11:11:55.837Z,96463.50
2022-11-08T11:14:22.978Z,96447.66
2022-11-08T11:16:52.578Z,96429.28
2022-11-08T11:19:18.999Z,96420.44
2022-11-08T11:21:45.406Z,96439.00
2022-11-08T11:24:15.445Z,96433.31
2022-11-08T11:26:46.358Z,96431.13
2022-11-08T11:29:19.743Z,96420.09
2022-11-08T11:31:47.098Z,96422.00
2022-11-08T11:34:16.585Z,96423.78
2022-11-08T11:36:43.263Z,96409.13
2022-11-08T11:39:14.680Z,96411.81
2022-11-08T11:42:31.049Z,96416.88
2022-11-08T11:45:06.366Z,96414.34
2022-11-08T11:47:53.355Z,96392.16
2022-11-08T11:50:36.457Z,96432.13
2022-11-08T11:53:06.844Z,96414.81
2022-11-08T11:55:38.171Z,96410.50
2022-11-08T11:58:23.301Z,96411.41
2022-11-08T12:00:51.437Z,96403.56
2022-11-08T12:03:36.661Z,96389.47
2022-11-08T12:06:28.032Z,96410.25
2022-11-08T12:08:58.451Z,96394.94
2022-11-08T12:11:27.925Z,96379.31
2022-11-08T12:14:13.005Z,96388.31
2022-11-08T12:16:46.469Z,96366.53
2022-11-08T12:19:21.007Z,96378.44
2022-11-08T12:21:56.654Z,96389.00
2022-11-08T12:24:38.443Z,96366.31
2022-11-08T12:27:23.682Z,96353.09
2022-11-08T12:30:03.775Z,96358.50
2022-11-08T12:32:52.351Z,96358.75
2022-11-08T12:35:24.925Z,96371.06
2022-11-08T12:38:09.992Z,96354.44
2022-11-08T12:40:55.176Z,96361.38
2022-11-08T12:43:41.855Z,96347.13
2022-11-08T12:46:09.794Z,96352.53
2022-11-08T12:48:48.691Z,96341.41
2022-11-08T12:51:18.275Z,96341.41
2022-11-08T12:53:50.440Z,96361.47
2022-11-08T12:56:25.093Z,96355.16
2022-11-08T12:58:52.475Z,96359.72
2022-11-08T13:01:19.878Z,96356.78
2022-11-08T13:03:58.632Z,96328.56
2022-11-08T13:06:46.293Z,96378.19
2022-11-08T13:09:19.401Z,96366.81
2022-11-08T13:12:06.133Z,96364.59
2022-11-08T13:14:34.968Z,96371.06
2022-11-08T13:17:17.217Z,96362.56
2022-11-08T13:19:46.644Z,96365.34
2022-11-08T13:22:31.457Z,96351.66
2022-11-08T13:25:21.140Z,96345.28
2022-11-08T13:27:48.481Z,96353.13
2022-11-08T13:30:15.277Z,96354.38
2022-11-08T13:32:54.053Z,96330.19
2022-11-08T13:35:23.773Z,96352.41
2022-11-08T13:38:08.997Z,96347.53
2022-11-08T13:40:41.453Z,96357.53
2022-11-08T13:43:20.718Z,96366.22
2022-11-08T13:45:47.307Z,96399.78
2022-11-08T13:48:33.920Z,96413.47
2022-11-08T13:51:18.997Z,96414.97
2022-11-08T13:53:51.413Z,96418.81
2022-11-08T13:56:54.189Z,96403.75
2022-11-08T13:59:32.812Z,96404.50
2022-11-08T14:02:03.727Z,96420.97
2022-11-08T14:04:40.200Z,96386.53
2022-11-08T14:07:06.778Z,96381.53
2022-11-08T14:09:39.295Z,96382.75
2022-11-08T14:12:28.998Z,96382.63
2022-11-08T14:15:14.408Z,96385.34
2022-11-08T14:17:47.776Z,96374.19
2022-11-08T14:20:35.666Z,96370.91
2022-11-08T14:23:09.802Z,96363.69
2022-11-08T14:25:36.266Z,96354.78
2022-11-08T14:28:02.669Z,96356.03
2022-11-08T14:30:29.064Z,96356.88
2022-11-08T14:33:05.465Z,96365.19
2022-11-08T14:35:31.954Z,96368.50
2022-11-08T14:37:58.410Z,96380.09
2022-11-08T14:40:26.466Z,96376.00
2022-11-08T14:42:53.023Z,96376.00
2022-11-08T14:45:25.450Z,96384.81
2022-11-08T14:48:12.637Z,96377.69
2022-11-08T14:50:39.079Z,96366.22
2022-11-08T14:53:21.978Z,96361.38
2022-11-08T14:55:53.195Z,96370.09
2022-11-08T14:58:19.907Z,96364.59
2022-11-08T15:00:46.605Z,96381.13
2022-11-08T15:03:17.348Z,96375.69
2022-11-08T15:06:12.545Z,96363.03
2022-11-08T15:08:51.163Z,96379.34
2022-11-08T15:11:28.589Z,96374.50
2022-11-08T15:13:59.284Z,96387.72
2022-11-08T15:16:25.777Z,96378.59
2022-11-08T15:18:52.169Z,96387.53
2022-11-08T15:21:31.251Z,96379.81
2022-11-08T15:24:14.256Z,96368.44
2022-11-08T15:26:40.815Z,96349.31
2022-11-08T15:29:13.339Z,96360.06
2022-11-08T15:32:09.297Z,96358.06
2022-11-08T15:34:39.110Z,96360.53
2022-11-08T15:37:21.933Z,96367.50
2022-11-08T15:39:48.377Z,96361.38
2022-11-08T15:42:15.378Z,96359.97
2022-11-08T15:45:01.417Z,96381.19
2022-11-08T15:47:43.234Z,96375.16
2022-11-08T15:50:17.793Z,96372.50
2022-11-08T15:52:44.605Z,96372.88
2022-11-08T15:55:21.341Z,96349.91
2022-11-08T15:57:47.974Z,96352.38
2022-11-08T16:00:15.609Z,96351.75
2022-11-08T16:02:42.159Z,96348.84
2022-11-08T16:05:15.953Z,96338.50
2022-11-08T16:07:43.435Z,96339.72
2022-11-08T16:10:10.251Z,96350.69
2022-11-08T16:12:37.676Z,96345.78
2022-11-08T16:15:04.456Z,96339.09
2022-11-08T16:17:30.961Z,96341.13
2022-11-08T16:19:57.370Z,96340.28
2022-11-08T16:22:23.790Z,96338.66
2022-11-08T16:24:50.190Z,96349.22
2022-11-08T16:27:16.623Z,96353.50
2022-11-08T16:29:43.067Z,96355.09
2022-11-08T16:32:09.493Z,96348.97
2022-11-08T16:34:35.925Z,96349.16
2022-11-08T16:37:02.317Z,96355.88
2022-11-08T16:39:29.275Z,96350.59
2022-11-08T16:41:55.707Z,96353.66
2022-11-08T16:44:23.165Z,96351.44
2022-11-08T16:46:49.587Z,96356.94
2022-11-08T16:49:20.310Z,96353.06
2022-11-08T16:51:46.779Z,96339.84
2022-11-08T16:54:15.218Z,96358.53
2022-11-08T16:56:41.714Z,96353.84
2022-11-08T16:59:08.101Z,96359.56
2022-11-08T17:01:34.694Z,96352.22
2022-11-08T17:04:01.092Z,96352.22
2022-11-08T17:06:27.542Z,96350.97
2022-11-08T17:08:54.045Z,96348.09
2022-11-08T17:11:21.361Z,96356.59
2022-11-08T17:13:48.368Z,96356.22
2022-11-08T17:16:15.262Z,96355.06
2022-11-08T17:18:41.797Z,96358.09
2022-11-08T17:21:30.354Z,96346.09
2022-11-08T17:23:55.083Z,96346.69
2022-11-08T17:26:21.532Z,96331.25
2022-11-08T17:28:47.935Z,96338.34
2022-11-08T17:31:18.782Z,96337.53
2022-11-08T17:33:45.227Z,96343.44
2022-11-08T17:36:12.702Z,96349.75
2022-11-08T17:38:39.961Z,96354.03
2022-11-08T17:41:07.653Z,96348.31
2022-11-08T17:43:35.086Z,96354.03
2022-11-08T17:46:02.078Z,96348.06
2022-11-08T17:48:28.666Z,96342.78
2022-11-08T17:50:55.236Z,96340.16
2022-11-08T17:53:21.994Z,96342.34
2022-11-08T17:55:54.368Z,96358.22
2022-11-08T17:58:21.177Z,96351.31
2022-11-08T18:00:50.876Z,96356.97
2022-11-08T18:03:17.626Z,96357.38
2022-11-08T18:05:54.377Z,96369.59
2022-11-08T18:08:26.498Z,96366.94
2022-11-08T18:10:53.399Z,96364.09
2022-11-08T18:13:20.538Z,96368.59
2022-11-08T18:15:47.549Z,96366.94
2022-11-08T18:18:14.093Z,96377.97
2022-11-08T18:20:40.631Z,96370.84
2022-11-08T18:23:07.100Z,96358.66
2022-11-08T18:25:34.111Z,96369.03
2022-11-08T18:28:00.537Z,96358.00
2022-11-08T18:30:27.044Z,96363.91
2022-11-08T18:32:53.501Z,96343.16
2022-11-08T18:35:19.966Z,96346.25
2022-11-08T18:37:46.430Z,96341.53
2022-11-08T18:40:13.461Z,96347.63
2022-11-08T18:42:40.044Z,96356.56
2022-11-08T18:45:06.732Z,96344.97
2022-11-08T18:47:33.339Z,96353.75
2022-11-08T18:50:01.999Z,96350.94
2022-11-08T18:52:29.211Z,96349.75
2022-11-08T18:54:55.869Z,96355.47
2022-11-08T18:57:22.648Z,96351.19
2022-11-08T18:59:49.054Z,96344.50
2022-11-08T19:02:15.519Z,96340.41
2022-11-08T19:04:41.925Z,96348.97
2022-11-08T19:07:08.477Z,96340.03
2022-11-08T19:09:35.479Z,96346.34
2022-11-08T19:12:05.864Z,96348.09
2022-11-08T19:14:32.814Z,96357.91
2022-11-08T19:16:59.247Z,96353.41
2022-11-08T19:19:25.719Z,96344.66
2022-11-08T19:21:52.120Z,96341.75
2022-11-08T19:24:18.864Z,96339.22
2022-11-08T19:26:45.308Z,96343.94
2022-11-08T19:29:13.371Z,96345.84
2022-11-08T19:31:40.052Z,96346.22
2022-11-08T19:34:06.502Z,96344.09
2022-11-08T19:36:33.205Z,96343.72
2022-11-08T19:38:59.710Z,96339.25
2022-11-08T19:41:26.893Z,96339.63
2022-11-08T19:43:53.534Z,96342.66
2022-11-08T19:46:20.897Z,96349.34
2022-11-08T19:48:48.164Z,96339.22
2022-11-08T19:51:16.363Z,96338.41
2022-11-08T19:53:42.954Z,96348.97
2022-11-08T19:56:10.423Z,96351.44
2022-11-08T19:58:37.251Z,96345.72
2022-11-08T20:01:31.167Z,96345.56
2022-11-08T20:03:57.987Z,96352.75
2022-11-08T20:06:24.454Z,96352.03
2022-11-08T20:08:51.561Z,96338.78
2022-11-08T20:11:19.024Z,96336.94
2022-11-08T20:13:45.563Z,96340.34
2022-11-08T20:16:15.966Z,96351.53
2022-11-08T20:18:42.602Z,96357.47
2022-11-08T20:21:09.546Z,96352.59
2022-11-08T20:23:36.133Z,96340.19
2022-11-08T20:26:03.543Z,96343.63
2022-11-08T20:28:30.047Z,96347.28
2022-11-08T20:31:06.558Z,96362.03
2022-11-08T20:33:33.655Z,96356.03
2022-11-08T20:36:11.040Z,96356.44
2022-11-08T20:38:37.585Z,96356.66
2022-11-08T20:41:04.579Z,96353.28
2022-11-08T20:43:31.054Z,96349.81
2022-11-08T20:46:04.527Z,96348.84
2022-11-08T20:48:31.099Z,96346.84
2022-11-08T20:50:58.740Z,96328.66
2022-11-08T20:53:25.456Z,96342.31
2022-11-08T20:55:58.062Z,96344.97
2022-11-08T20:58:25.255Z,96349.66
2022-11-08T21:00:58.191Z,96356.88
2022-11-08T21:03:25.255Z,96349.91
2022-11-08T21:05:52.429Z,96356.03
2022-11-08T21:11:05.860Z,96346.91
2022-11-08T21:13:33.327Z,96343.41
2022-11-08T21:16:19.759Z,96350.53
2022-11-08T21:18:47.176Z,96352.97
2022-11-08T21:21:14.622Z,96354.28
2022-11-08T21:23:41.869Z,96355.44
2022-11-08T21:26:08.699Z,96370.47
2022-11-08T21:28:35.158Z,96362.31
2022-11-08T21:31:01.951Z,96370.47
2022-11-08T21:33:28.378Z,96369.66
2022-11-08T21:35:55.378Z,96366.03
2022-11-08T21:38:22.009Z,96364.63
2022-11-08T21:40:48.728Z,96375.28
2022-11-08T21:43:15.301Z,96357.03
2022-11-08T21:45:41.779Z,96365.78
2022-11-08T21:48:14.057Z,96379.06
2022-11-08T21:50:41.751Z,96369.81
2022-11-08T21:53:08.418Z,96370.38
2022-11-08T21:55:35.102Z,96367.75
2022-11-08T21:58:01.819Z,96370.81
2022-11-08T22:00:28.658Z,96368.78
2022-11-08T22:02:55.534Z,96372.84
2022-11-08T22:05:22.017Z,96371.06
2022-11-08T22:07:48.407Z,96371.66
2022-11-08T22:10:14.843Z,96372.69
2022-11-08T22:12:41.265Z,96357.84
2022-11-08T22:15:08.265Z,96388.41
2022-11-08T22:17:34.750Z,96375.34
2022-11-08T22:20:01.272Z,96371.50
2022-11-08T22:22:27.710Z,96360.94
2022-11-08T22:24:55.604Z,96357.03
2022-11-08T22:27:22.078Z,96365.94
2022-11-08T22:29:48.528Z,96368.00
2022-11-08T22:32:14.977Z,96360.66
2022-11-08T22:34:41.387Z,96350.72
2022-11-08T22:37:07.803Z,96357.03
2022-11-08T22:39:34.207Z,96349.75
2022-11-08T22:42:00.659Z,96353.84
2022-11-08T22:44:27.090Z,96340.41
2022-11-08T22:46:53.586Z,96355.47
2022-11-08T22:49:20.025Z,96357.50
2022-11-08T22:51:46.552Z,96370.09
2022-11-08T22:54:13.121Z,96364.59
2022-11-08T22:56:40.437Z,96361.56
2022-11-08T22:59:06.966Z,96366.84
2022-11-08T23:01:33.840Z,96368.88
2022-11-08T23:04:00.333Z,96364.78
2022-11-08T23:06:26.824Z,96357.09
2022-11-08T23:08:53.250Z,96358.31
2022-11-08T23:11:38.306Z,96366.88
2022-11-08T23:14:23.445Z,96349.34
2022-11-08T23:16:49.855Z,96361.19
2022-11-08T23:19:36.042Z,96359.56
2022-11-08T23:22:21.662Z,96358.31
2022-11-08T23:24:48.098Z,96360.41
2022-11-08T23:27:34.337Z,96362.88
2022-11-08T23:30:19.552Z,96369.34
2022-11-08T23:32:46.962Z,96370.13
2022-11-08T23:35:13.499Z,96372.78
2022-11-08T23:37:40.060Z,96365.84
2022-11-08T23:40:25.641Z,96378.31
2022-11-08T23:43:23.996Z,96388.13
2022-11-08T23:45:50.413Z,96378.22
2022-11-08T23:48:16.914Z,96376.44
2022-11-08T23:50:47.061Z,96374.84
2022-11-08T23:53:13.494Z,96366.69
2022-11-08T23:55:39.890Z,96380.34
2022-11-08T23:58:06.331Z,96395.22
